Time;durP1;ratioP1;P1;durP2;ratioP2;P2;SDS_P1;SDS_P2;PMS_P1;PMS_P2;Temp;Humidity;BMP_temperature;BMP_pressure;BME280_temperature;BME280_humidity;BME280_pressure;Samples;Min_cycle;Max_cycle;Signal;HPM_P1;HPM_P2
2023/05/07 00:02:00;;;;;;;23.25;19.17;;;;;;;;;;5086160;28;20040;-81
2023/05/07 00:04:26;;;;;;;25.13;19.23;;;;;;;;;;5084742;28;20068;-80
2023/05/07 00:06:52;;;;;;;23.75;18.95;;;;;;;;;;5084551;28;20499;-80
2023/05/07 00:09:18;;;;;;;26.52;20.00;;;;;;;;;;5081475;28;20036;-81
2023/05/07 00:11:44;;;;;;;24.17;20.52;;;;;;;;;;5082597;28;20067;-82
2023/05/07 00:14:11;;;;;;;26.40;20.60;;;;;;;;;;5084901;28;20105;-81
2023/05/07 00:16:37;;;;;;;23.25;20.40;;;;;;;;;;5084304;28;20040;-81
2023/05/07 00:19:03;;;;;;;23.90;19.58;;;;;;;;;;5085688;28;20061;-81
2023/05/07 00:21:30;;;;;;;24.33;19.75;;;;;;;;;;5083118;28;20048;-82
2023/05/07 00:23:56;;;;;;;24.83;20.55;;;;;;;;;;5066785;28;20045;-82
2023/05/07 00:26:22;;;;;;;25.23;19.50;;;;;;;;;;5081862;28;20045;-82
2023/05/07 00:28:48;;;;;;;23.10;19.90;;;;;;;;;;5080922;28;20552;-82
2023/05/07 00:31:14;;;;;;;30.45;21.25;;;;;;;;;;5081170;28;20372;-82
2023/05/07 00:33:40;;;;;;;24.85;20.80;;;;;;;;;;5079311;28;20048;-82
2023/05/07 00:36:06;;;;;;;24.27;20.27;;;;;;;;;;5082269;28;20056;-82
2023/05/07 00:38:33;;;;;;;25.33;21.33;;;;;;;;;;5086928;28;20048;-82
2023/05/07 00:40:59;;;;;;;25.02;21.05;;;;;;;;;;5083615;28;20103;-82
2023/05/07 00:43:25;;;;;;;24.20;20.65;;;;;;;;;;5085675;28;20048;-82
2023/05/07 00:45:51;;;;;;;23.88;20.42;;;;;;;;;;5087830;28;20090;-81
2023/05/07 00:48:17;;;;;;;23.48;20.98;;;;;;;;;;5088354;28;20037;-82
2023/05/07 00:50:44;;;;;;;23.45;20.92;;;;;;;;;;5086482;28;20483;-81
2023/05/07 00:53:10;;;;;;;25.13;21.80;;;;;;;;;;5087473;28;20049;-83
2023/05/07 00:55:36;;;;;;;25.45;21.85;;;;;;;;;;5088134;28;20044;-81
2023/05/07 00:58:03;;;;;;;26.52;21.35;;;;;;;;;;5087143;28;20056;-81
2023/05/07 01:00:29;;;;;;;24.60;21.27;;;;;;;;;;5068479;28;20041;-81
2023/05/07 01:02:55;;;;;;;25.35;22.25;;;;;;;;;;5084594;28;20168;-82
2023/05/07 01:05:22;;;;;;;25.58;22.52;;;;;;;;;;5085538;28;20064;-80
2023/05/07 01:07:49;;;;;;;28.13;23.65;;;;;;;;;;5082285;28;20072;-82
2023/05/07 01:10:15;;;;;;;28.30;23.95;;;;;;;;;;5082820;28;20048;-81
2023/05/07 01:12:42;;;;;;;29.20;24.00;;;;;;;;;;5082122;28;20036;-82
2023/05/07 01:15:09;;;;;;;28.92;24.85;;;;;;;;;;5077546;28;20049;-82
2023/05/07 01:17:36;;;;;;;29.77;24.23;;;;;;;;;;5077566;28;20051;-82
2023/05/07 01:20:04;;;;;;;29.25;24.50;;;;;;;;;;5070956;28;20041;-84
2023/05/07 01:22:37;;;;;;;32.08;25.67;;;;;;;;;;5083954;28;20044;-82
2023/05/07 01:25:04;;;;;;;32.05;26.17;;;;;;;;;;5084901;28;20044;-82
2023/05/07 01:27:30;;;;;;;29.75;25.40;;;;;;;;;;5083186;28;20048;-82
2023/05/07 01:29:56;;;;;;;31.20;26.90;;;;;;;;;;5074394;28;20045;-81
2023/05/07 01:32:26;;;;;;;36.33;27.52;;;;;;;;;;5078959;28;20103;-81
2023/05/07 01:34:53;;;;;;;32.33;27.38;;;;;;;;;;5089989;28;20037;-82
2023/05/07 01:37:20;;;;;;;30.73;25.83;;;;;;;;;;5085228;28;20135;-81
2023/05/07 01:39:47;;;;;;;31.75;27.45;;;;;;;;;;5084216;28;20047;-82
2023/05/07 01:42:13;;;;;;;31.70;26.33;;;;;;;;;;5080893;28;20071;-82
2023/05/07 01:44:39;;;;;;;31.17;26.33;;;;;;;;;;5089396;28;20088;-81
2023/05/07 01:47:06;;;;;;;32.83;27.65;;;;;;;;;;5094131;28;20047;-81
2023/05/07 01:49:32;;;;;;;33.05;27.98;;;;;;;;;;5085631;28;20120;-82
2023/05/07 01:51:58;;;;;;;33.90;28.23;;;;;;;;;;5084247;28;20056;-81
2023/05/07 01:54:28;;;;;;;34.88;27.73;;;;;;;;;;5083386;28;20045;-83
2023/05/07 01:56:54;;;;;;;33.40;27.50;;;;;;;;;;5085430;28;20461;-83
2023/05/07 01:59:20;;;;;;;33.25;29.52;;;;;;;;;;5087363;28;20048;-82
2023/05/07 02:01:47;;;;;;;36.45;30.42;;;;;;;;;;5084412;28;20048;-82
2023/05/07 02:04:13;;;;;;;37.80;30.98;;;;;;;;;;5084942;28;20055;-81
2023/05/07 02:06:39;;;;;;;37.85;32.38;;;;;;;;;;5083648;28;20046;-81
2023/05/07 02:09:05;;;;;;;41.97;32.50;;;;;;;;;;5084974;28;20040;-82
2023/05/07 02:11:31;;;;;;;39.17;32.30;;;;;;;;;;5085338;28;20051;-81
2023/05/07 02:13:57;;;;;;;40.58;33.30;;;;;;;;;;5085714;28;20048;-81
2023/05/07 02:16:24;;;;;;;45.17;33.47;;;;;;;;;;5077409;28;20049;-83
2023/05/07 02:18:50;;;;;;;43.42;33.90;;;;;;;;;;5086158;28;20063;-80
2023/05/07 02:21:16;;;;;;;42.75;34.67;;;;;;;;;;5085437;28;20063;-81
2023/05/07 02:23:42;;;;;;;44.38;34.78;;;;;;;;;;5085413;28;20518;-81
2023/05/07 02:26:08;;;;;;;43.50;35.00;;;;;;;;;;5079332;28;20423;-82
2023/05/07 02:28:37;;;;;;;43.78;34.88;;;;;;;;;;5085207;28;20055;-82
2023/05/07 02:31:06;;;;;;;44.33;35.72;;;;;;;;;;5081422;28;20126;-82
2023/05/07 02:33:34;;;;;;;46.38;35.78;;;;;;;;;;5054619;28;20558;-79
2023/05/07 02:36:10;;;;;;;45.42;36.80;;;;;;;;;;5080916;28;20048;-81
2023/05/07 02:38:36;;;;;;;47.78;36.05;;;;;;;;;;5084813;28;20040;-81
2023/05/07 02:41:02;;;;;;;46.30;35.42;;;;;;;;;;5082067;28;20123;-82
2023/05/07 02:43:28;;;;;;;46.53;35.75;;;;;;;;;;5072087;28;20051;-82
2023/05/07 02:46:07;;;;;;;46.70;36.72;;;;;;;;;;5082776;28;20068;-81
2023/05/07 02:48:34;;;;;;;46.75;36.38;;;;;;;;;;5082355;28;20040;-82
2023/05/07 02:51:00;;;;;;;45.03;36.10;;;;;;;;;;5082622;28;20128;-82
2023/05/07 02:53:27;;;;;;;47.05;36.45;;;;;;;;;;5081897;28;20071;-83
2023/05/07 02:55:57;;;;;;;47.22;36.25;;;;;;;;;;5082350;28;20044;-81
2023/05/07 02:58:23;;;;;;;48.22;38.10;;;;;;;;;;5067880;28;20055;-81
2023/05/07 03:00:49;;;;;;;47.53;36.20;;;;;;;;;;5083804;28;20055;-81
2023/05/07 03:03:15;;;;;;;47.60;36.63;;;;;;;;;;5084091;28;20076;-81
2023/05/07 03:05:41;;;;;;;45.00;35.75;;;;;;;;;;5075242;28;20043;-82
2023/05/07 03:08:08;;;;;;;51.88;36.67;;;;;;;;;;5082164;28;20041;-82
2023/05/07 03:10:34;;;;;;;50.03;36.80;;;;;;;;;;5084079;28;20041;-82
2023/05/07 03:13:00;;;;;;;46.72;36.00;;;;;;;;;;5083441;28;20544;-82
2023/05/07 03:15:26;;;;;;;50.97;38.35;;;;;;;;;;5080758;28;20063;-83
2023/05/07 03:17:52;;;;;;;46.20;35.88;;;;;;;;;;5082017;28;20087;-80
2023/05/07 03:20:18;;;;;;;46.00;35.22;;;;;;;;;;5081304;28;20044;-81
2023/05/07 03:22:44;;;;;;;45.67;35.88;;;;;;;;;;5082092;28;20094;-82
2023/05/07 03:25:10;;;;;;;46.58;34.72;;;;;;;;;;5079112;28;20048;-82
2023/05/07 03:27:36;;;;;;;43.70;34.22;;;;;;;;;;5082003;28;20079;-82
2023/05/07 03:30:02;;;;;;;47.40;34.15;;;;;;;;;;5083166;28;20058;-83
2023/05/07 03:32:29;;;;;;;43.35;34.15;;;;;;;;;;5080884;28;20040;-82
2023/05/07 03:34:55;;;;;;;40.72;32.90;;;;;;;;;;5079392;28;20052;-82
2023/05/07 03:37:21;;;;;;;42.35;34.08;;;;;;;;;;5080447;28;20453;-82
2023/05/07 03:39:48;;;;;;;42.13;34.17;;;;;;;;;;5082376;28;20063;-83
2023/05/07 03:42:14;;;;;;;41.30;32.35;;;;;;;;;;5084387;28;20067;-82
2023/05/07 03:44:40;;;;;;;36.67;31.88;;;;;;;;;;5084726;28;20053;-82
2023/05/07 03:47:06;;;;;;;38.28;32.08;;;;;;;;;;5080804;28;20036;-81
2023/05/07 03:49:32;;;;;;;40.13;31.52;;;;;;;;;;5080849;28;20049;-81
2023/05/07 03:51:58;;;;;;;41.35;33.08;;;;;;;;;;5079824;28;20105;-81
2023/05/07 03:54:24;;;;;;;39.83;31.40;;;;;;;;;;5077784;28;20516;-80
2023/05/07 03:56:50;;;;;;;42.85;32.70;;;;;;;;;;5078186;28;20055;-81
2023/05/07 03:59:17;;;;;;;38.63;31.65;;;;;;;;;;5078788;28;20040;-81
2023/05/07 04:01:43;;;;;;;36.80;30.40;;;;;;;;;;5080034;28;20040;-81
2023/05/07 04:04:09;;;;;;;37.28;31.40;;;;;;;;;;5078357;28;20566;-81
2023/05/07 04:06:35;;;;;;;37.72;30.48;;;;;;;;;;5077569;28;20033;-81
2023/05/07 04:09:01;;;;;;;38.97;31.35;;;;;;;;;;5076858;28;20048;-81
2023/05/07 04:11:27;;;;;;;36.22;29.73;;;;;;;;;;5077225;28;20045;-82
2023/05/07 04:13:53;;;;;;;38.05;31.38;;;;;;;;;;5076082;28;20044;-81
2023/05/07 04:16:19;;;;;;;36.13;29.45;;;;;;;;;;5075075;28;20048;-82
2023/05/07 04:18:45;;;;;;;35.15;30.33;;;;;;;;;;5078239;28;20044;-83
2023/05/07 04:21:21;;;;;;;34.42;28.23;;;;;;;;;;5077307;28;20123;-82
2023/05/07 04:23:48;;;;;;;34.55;28.02;;;;;;;;;;5068670;28;20056;-81
2023/05/07 04:26:14;;;;;;;35.63;29.63;;;;;;;;;;5073944;28;20037;-81
2023/05/07 04:28:41;;;;;;;35.60;29.33;;;;;;;;;;5079472;28;20047;-81
2023/05/07 04:31:07;;;;;;;32.88;27.90;;;;;;;;;;5073726;28;20094;-82
2023/05/07 04:33:33;;;;;;;32.33;27.85;;;;;;;;;;5075085;28;20041;-81
2023/05/07 04:36:02;;;;;;;33.75;27.55;;;;;;;;;;5077574;28;20044;-82
2023/05/07 04:38:32;;;;;;;35.47;28.33;;;;;;;;;;5078556;28;20132;-81
2023/05/07 04:40:58;;;;;;;31.35;27.95;;;;;;;;;;5078723;28;20059;-85
2023/05/07 04:43:24;;;;;;;32.78;27.27;;;;;;;;;;5076515;28;20057;-82
2023/05/07 04:45:51;;;;;;;30.45;26.25;;;;;;;;;;5077814;28;20051;-82
2023/05/07 04:48:20;;;;;;;33.05;27.70;;;;;;;;;;5078458;28;20495;-81
2023/05/07 04:50:50;;;;;;;32.08;26.65;;;;;;;;;;5075542;28;20032;-82
2023/05/07 04:53:16;;;;;;;32.25;27.63;;;;;;;;;;5077923;28;20084;-81
2023/05/07 04:55:42;;;;;;;30.40;26.83;;;;;;;;;;5076555;28;20067;-83
2023/05/07 04:58:08;;;;;;;30.77;26.70;;;;;;;;;;5078150;28;20040;-82
2023/05/07 05:00:34;;;;;;;32.28;27.45;;;;;;;;;;5079118;28;20488;-81
2023/05/07 05:03:00;;;;;;;30.58;26.10;;;;;;;;;;5075995;28;20056;-82
2023/05/07 05:05:27;;;;;;;32.45;27.27;;;;;;;;;;5078198;28;20132;-85
2023/05/07 05:07:53;;;;;;;31.60;27.17;;;;;;;;;;5080973;28;20058;-82
2023/05/07 05:10:19;;;;;;;33.33;27.40;;;;;;;;;;5079030;28;20040;-81
2023/05/07 05:12:45;;;;;;;30.63;26.67;;;;;;;;;;5069555;28;20048;-85
2023/05/07 05:15:12;;;;;;;31.88;25.75;;;;;;;;;;5070925;28;20052;-82
2023/05/07 05:17:38;;;;;;;32.13;28.10;;;;;;;;;;5075496;28;20099;-82
2023/05/07 05:20:05;;;;;;;31.63;26.88;;;;;;;;;;5076687;28;20037;-84
2023/05/07 05:22:31;;;;;;;33.40;27.25;;;;;;;;;;5071636;28;20120;-82
2023/05/07 05:24:57;;;;;;;29.63;25.48;;;;;;;;;;5070611;28;20040;-83
2023/05/07 05:27:24;;;;;;;29.35;25.58;;;;;;;;;;5072155;28;20052;-82
2023/05/07 05:29:50;;;;;;;29.25;25.83;;;;;;;;;;5056565;28;20047;-82
2023/05/07 05:32:16;;;;;;;32.30;27.35;;;;;;;;;;5071250;28;20037;-82
2023/05/07 05:34:42;;;;;;;31.00;27.25;;;;;;;;;;5071545;28;20040;-81
2023/05/07 05:37:08;;;;;;;32.13;26.20;;;;;;;;;;5074751;28;20052;-84
2023/05/07 05:39:34;;;;;;;31.05;27.05;;;;;;;;;;5075672;28;20063;-81
2023/05/07 05:42:00;;;;;;;32.03;26.27;;;;;;;;;;5073143;28;20037;-81
2023/05/07 05:44:26;;;;;;;31.98;28.30;;;;;;;;;;5082350;28;20167;-80
2023/05/07 05:46:54;;;;;;;31.45;27.67;;;;;;;;;;5075637;28;20040;-81
2023/05/07 05:49:20;;;;;;;31.30;26.73;;;;;;;;;;5083722;28;20048;-80
2023/05/07 05:51:46;;;;;;;35.58;28.13;;;;;;;;;;5079419;28;20052;-80
2023/05/07 05:54:12;;;;;;;30.00;26.80;;;;;;;;;;5082118;28;20052;-80
2023/05/07 05:56:38;;;;;;;32.80;26.27;;;;;;;;;;5083981;28;20041;-80
2023/05/07 05:59:04;;;;;;;29.90;26.70;;;;;;;;;;5084749;28;20063;-81
2023/05/07 06:01:30;;;;;;;33.22;26.63;;;;;;;;;;5083195;28;20079;-81
2023/05/07 06:03:56;;;;;;;32.75;27.25;;;;;;;;;;5082400;28;20051;-81
2023/05/07 06:06:22;;;;;;;30.45;26.58;;;;;;;;;;5080548;28;20415;-82
2023/05/07 06:08:48;;;;;;;32.05;27.08;;;;;;;;;;5083236;28;20090;-82
2023/05/07 06:11:15;;;;;;;35.15;28.38;;;;;;;;;;5080910;28;20041;-82
2023/05/07 06:13:41;;;;;;;31.88;27.83;;;;;;;;;;5079808;28;20407;-81
2023/05/07 06:16:07;;;;;;;32.42;27.38;;;;;;;;;;5077321;28;20051;-82
2023/05/07 06:18:35;;;;;;;32.60;27.45;;;;;;;;;;5079551;28;20040;-81
2023/05/07 06:21:01;;;;;;;33.17;28.15;;;;;;;;;;5079961;28;20063;-81
2023/05/07 06:23:27;;;;;;;31.63;27.98;;;;;;;;;;5071678;28;20044;-81
2023/05/07 06:25:53;;;;;;;34.95;27.33;;;;;;;;;;5077166;28;20093;-83
2023/05/07 06:28:19;;;;;;;32.13;26.98;;;;;;;;;;5078858;28;20040;-82
2023/05/07 06:30:46;;;;;;;33.22;27.88;;;;;;;;;;5075219;28;20072;-81
2023/05/07 06:33:11;;;;;;;32.05;26.25;;;;;;;;;;5074233;28;20036;-81
2023/05/07 06:35:37;;;;;;;31.67;26.95;;;;;;;;;;5081740;28;20043;-81
2023/05/07 06:38:03;;;;;;;34.30;28.08;;;;;;;;;;5080250;28;20498;-82
2023/05/07 06:40:29;;;;;;;32.50;27.83;;;;;;;;;;5077851;28;20096;-82
2023/05/07 06:42:55;;;;;;;33.40;28.42;;;;;;;;;;5079418;28;20126;-83
2023/05/07 06:45:22;;;;;;;32.53;29.00;;;;;;;;;;5084017;28;20090;-81
2023/05/07 06:47:48;;;;;;;34.13;28.35;;;;;;;;;;5085973;28;20149;-82
2023/05/07 06:50:16;;;;;;;32.63;28.67;;;;;;;;;;5083219;28;20036;-83
2023/05/07 06:52:42;;;;;;;38.75;30.85;;;;;;;;;;5083241;28;20406;-81
2023/05/07 06:55:09;;;;;;;33.05;28.40;;;;;;;;;;5084817;28;20055;-82
2023/05/07 06:57:35;;;;;;;35.55;29.33;;;;;;;;;;5065636;28;20052;-83
2023/05/07 07:00:01;;;;;;;36.55;30.83;;;;;;;;;;5083586;28;20040;-82
2023/05/07 07:02:27;;;;;;;34.17;29.60;;;;;;;;;;5077496;28;20127;-82
2023/05/07 07:04:53;;;;;;;34.95;29.55;;;;;;;;;;5078373;28;21728;-82
2023/05/07 07:07:19;;;;;;;35.78;29.15;;;;;;;;;;5074576;28;20135;-82
2023/05/07 07:09:45;;;;;;;37.10;29.35;;;;;;;;;;5083410;28;20163;-82
2023/05/07 07:12:11;;;;;;;36.53;28.98;;;;;;;;;;5081442;28;20552;-81
2023/05/07 07:14:37;;;;;;;32.22;28.58;;;;;;;;;;5084184;28;20079;-84
2023/05/07 07:17:04;;;;;;;35.45;29.65;;;;;;;;;;5084715;28;20045;-82
2023/05/07 07:19:31;;;;;;;33.67;29.25;;;;;;;;;;5086402;28;20442;-81
2023/05/07 07:21:57;;;;;;;34.05;30.05;;;;;;;;;;5086307;28;20043;-81
2023/05/07 07:24:23;;;;;;;37.75;30.63;;;;;;;;;;5074087;28;20040;-82
2023/05/07 07:26:49;;;;;;;33.75;29.92;;;;;;;;;;5054499;28;20060;-83
2023/05/07 07:29:15;;;;;;;35.65;30.48;;;;;;;;;;5065553;28;20186;-83
2023/05/07 07:31:41;;;;;;;33.35;29.17;;;;;;;;;;5076271;28;20079;-83
2023/05/07 07:34:07;;;;;;;36.83;30.00;;;;;;;;;;5084759;28;20036;-81
2023/05/07 07:36:33;;;;;;;36.10;29.98;;;;;;;;;;5085872;28;20040;-81
2023/05/07 07:38:59;;;;;;;31.67;28.20;;;;;;;;;;5085605;28;20040;-81
2023/05/07 07:41:25;;;;;;;33.05;28.73;;;;;;;;;;5086074;28;20080;-82
2023/05/07 07:43:51;;;;;;;34.30;28.92;;;;;;;;;;5086858;28;20045;-81
2023/05/07 07:46:17;;;;;;;35.38;30.30;;;;;;;;;;5084766;28;20045;-82
2023/05/07 07:48:43;;;;;;;35.15;30.02;;;;;;;;;;5063934;28;20041;-81
2023/05/07 07:51:09;;;;;;;33.42;29.02;;;;;;;;;;5081894;28;20045;-82
2023/05/07 07:53:35;;;;;;;32.40;28.58;;;;;;;;;;5081935;28;20064;-82
2023/05/07 07:56:01;;;;;;;32.05;28.05;;;;;;;;;;5079038;28;20040;-82
2023/05/07 07:58:27;;;;;;;34.33;28.90;;;;;;;;;;5069873;28;20436;-81
2023/05/07 08:00:55;;;;;;;34.13;27.13;;;;;;;;;;5075109;28;20044;-82
2023/05/07 08:03:21;;;;;;;32.55;27.67;;;;;;;;;;5085859;28;20060;-84
2023/05/07 08:05:49;;;;;;;32.60;27.42;;;;;;;;;;5085596;28;20045;-82
2023/05/07 08:08:15;;;;;;;31.42;27.10;;;;;;;;;;5085511;28;20059;-82
2023/05/07 08:10:41;;;;;;;29.02;25.88;;;;;;;;;;5081296;28;20440;-82
2023/05/07 08:13:07;;;;;;;31.55;27.50;;;;;;;;;;5072691;28;20037;-82
2023/05/07 08:15:33;;;;;;;29.65;26.42;;;;;;;;;;5074422;28;20037;-83
2023/05/07 08:18:02;;;;;;;29.10;26.00;;;;;;;;;;5080881;28;20036;-84
2023/05/07 08:20:29;;;;;;;28.92;25.40;;;;;;;;;;5081350;28;20041;-82
2023/05/07 08:22:55;;;;;;;29.10;25.70;;;;;;;;;;5078784;28;20048;-82
2023/05/07 08:25:21;;;;;;;29.55;25.65;;;;;;;;;;5078839;28;20040;-82
2023/05/07 08:27:47;;;;;;;27.27;24.38;;;;;;;;;;5080541;28;20040;-83
2023/05/07 08:30:13;;;;;;;27.75;24.75;;;;;;;;;;5079748;28;20044;-83
2023/05/07 08:32:39;;;;;;;27.98;23.90;;;;;;;;;;5078375;28;20040;-84
2023/05/07 08:35:06;;;;;;;25.38;22.63;;;;;;;;;;5076130;28;20055;-83
2023/05/07 08:37:32;;;;;;;25.85;22.85;;;;;;;;;;5077537;28;20068;-82
2023/05/07 08:39:58;;;;;;;25.40;22.65;;;;;;;;;;5082260;28;20048;-83
2023/05/07 08:42:27;;;;;;;24.92;22.17;;;;;;;;;;5077151;28;20103;-83
2023/05/07 08:44:55;;;;;;;24.75;22.08;;;;;;;;;;5075160;28;20059;-83
2023/05/07 08:47:23;;;;;;;24.17;21.58;;;;;;;;;;5080628;28;20056;-82
2023/05/07 08:49:50;;;;;;;24.65;21.95;;;;;;;;;;5081504;28;20080;-82
2023/05/07 08:52:16;;;;;;;24.13;21.52;;;;;;;;;;5079881;28;20064;-83
2023/05/07 08:54:42;;;;;;;23.02;20.58;;;;;;;;;;5080767;28;20452;-81
2023/05/07 08:57:08;;;;;;;22.95;20.38;;;;;;;;;;5080476;28;20055;-82
2023/05/07 08:59:36;;;;;;;23.17;20.77;;;;;;;;;;5077470;28;20366;-82
2023/05/07 09:02:02;;;;;;;26.65;20.58;;;;;;;;;;5071760;28;20075;-82
2023/05/07 09:04:28;;;;;;;23.38;20.88;;;;;;;;;;5074055;28;20048;-82
2023/05/07 09:06:55;;;;;;;23.73;20.88;;;;;;;;;;5084049;28;20040;-82
2023/05/07 09:09:22;;;;;;;22.27;19.52;;;;;;;;;;5085531;28;20041;-81
2023/05/07 09:11:48;;;;;;;23.55;19.80;;;;;;;;;;5089291;28;20527;-81
2023/05/07 09:14:14;;;;;;;22.90;19.90;;;;;;;;;;5096613;28;20128;-81
2023/05/07 09:16:40;;;;;;;22.48;18.85;;;;;;;;;;5095686;28;20080;-82
2023/05/07 09:19:06;;;;;;;21.90;19.65;;;;;;;;;;5095391;28;20033;-82
2023/05/07 09:21:32;;;;;;;21.55;19.30;;;;;;;;;;5088204;28;20048;-82
2023/05/07 09:23:58;;;;;;;20.85;18.67;;;;;;;;;;5083848;28;20052;-82
2023/05/07 09:26:25;;;;;;;22.23;19.48;;;;;;;;;;5085917;28;20047;-82
2023/05/07 09:28:51;;;;;;;23.42;18.55;;;;;;;;;;5084748;28;20066;-82
2023/05/07 09:31:18;;;;;;;21.98;19.38;;;;;;;;;;5086896;28;20218;-82
2023/05/07 09:33:44;;;;;;;21.33;19.15;;;;;;;;;;5085066;28;20123;-82
2023/05/07 09:36:10;;;;;;;21.73;19.42;;;;;;;;;;5086249;28;20600;-81
2023/05/07 09:38:37;;;;;;;20.55;18.45;;;;;;;;;;5085428;28;20066;-82
2023/05/07 09:41:08;;;;;;;22.13;19.17;;;;;;;;;;5085801;28;20131;-82
2023/05/07 09:43:35;;;;;;;21.25;18.98;;;;;;;;;;5084681;28;20161;-82
2023/05/07 09:46:03;;;;;;;20.38;18.10;;;;;;;;;;5082915;28;20042;-81
2023/05/07 09:48:30;;;;;;;20.83;18.67;;;;;;;;;;5082850;28;20055;-82
2023/05/07 09:50:58;;;;;;;21.80;19.00;;;;;;;;;;5079978;28;20032;-81
2023/05/07 09:53:25;;;;;;;21.45;19.15;;;;;;;;;;5078380;28;20057;-82
2023/05/07 09:55:51;;;;;;;20.27;18.17;;;;;;;;;;5081035;28;20048;-82
2023/05/07 09:58:19;;;;;;;20.88;18.77;;;;;;;;;;5082757;28;20045;-82
2023/05/07 10:00:46;;;;;;;20.42;18.23;;;;;;;;;;5085204;28;20044;-82
2023/05/07 10:03:14;;;;;;;21.48;19.17;;;;;;;;;;5084967;28;20051;-82
2023/05/07 10:05:40;;;;;;;20.23;18.13;;;;;;;;;;5085766;28;20040;-82
2023/05/07 10:08:07;;;;;;;20.20;18.10;;;;;;;;;;5083114;28;20045;-82
2023/05/07 10:10:34;;;;;;;20.55;18.35;;;;;;;;;;5085164;28;20047;-82
2023/05/07 10:13:01;;;;;;;20.77;18.70;;;;;;;;;;5085613;28;20903;-83
2023/05/07 10:15:28;;;;;;;20.17;18.08;;;;;;;;;;5088091;28;20084;-83
2023/05/07 10:17:55;;;;;;;19.42;17.52;;;;;;;;;;5086295;28;20045;-83
2023/05/07 10:20:21;;;;;;;19.85;17.85;;;;;;;;;;5086590;28;20043;-83
2023/05/07 10:22:49;;;;;;;20.02;17.85;;;;;;;;;;5088190;28;20048;-82
2023/05/07 10:25:21;;;;;;;20.42;18.23;;;;;;;;;;5081967;28;20041;-82
2023/05/07 10:27:48;;;;;;;20.58;18.38;;;;;;;;;;5081268;28;20029;-81
2023/05/07 10:30:18;;;;;;;20.58;18.50;;;;;;;;;;5075872;28;20064;-82
2023/05/07 10:32:48;;;;;;;20.73;18.63;;;;;;;;;;5080149;28;20145;-81
2023/05/07 10:35:16;;;;;;;20.42;18.23;;;;;;;;;;5082884;28;20060;-82
2023/05/07 10:37:43;;;;;;;21.60;19.23;;;;;;;;;;5080146;28;20111;-84
2023/05/07 10:40:10;;;;;;;19.75;17.75;;;;;;;;;;5078505;28;20576;-83
2023/05/07 10:42:36;;;;;;;20.73;18.27;;;;;;;;;;5072283;28;20104;-82
2023/05/07 10:45:13;;;;;;;20.65;18.02;;;;;;;;;;5072237;28;20056;-81
2023/05/07 10:47:59;;;;;;;20.23;18.23;;;;;;;;;;5082063;28;20036;-82
2023/05/07 10:50:25;;;;;;;20.20;18.10;;;;;;;;;;5076025;28;20064;-81
2023/05/07 10:53:10;;;;;;;20.35;18.25;;;;;;;;;;5080015;28;20162;-82
2023/05/07 10:55:36;;;;;;;20.90;18.33;;;;;;;;;;5083655;28;20044;-82
2023/05/07 10:58:21;;;;;;;20.13;17.48;;;;;;;;;;5082068;28;20049;-82
2023/05/07 11:00:47;;;;;;;18.63;16.67;;;;;;;;;;5082646;28;20033;-83
2023/05/07 11:03:14;;;;;;;19.48;17.45;;;;;;;;;;5083807;28;20095;-82
2023/05/07 11:05:41;;;;;;;19.98;17.88;;;;;;;;;;5082773;28;20104;-82
2023/05/07 11:08:07;;;;;;;18.92;17.02;;;;;;;;;;5082004;28;20044;-83
2023/05/07 11:10:48;;;;;;;20.02;17.85;;;;;;;;;;5083024;28;20071;-82
2023/05/07 11:13:15;;;;;;;19.40;17.45;;;;;;;;;;5082372;28;20037;-82
2023/05/07 11:15:45;;;;;;;19.58;17.58;;;;;;;;;;5083169;28;20036;-83
2023/05/07 11:18:12;;;;;;;20.13;17.60;;;;;;;;;;5082097;28;20056;-84
2023/05/07 11:20:44;;;;;;;20.08;18.10;;;;;;;;;;5082426;28;20047;-84
2023/05/07 11:23:30;;;;;;;19.95;17.60;;;;;;;;;;5079770;28;20055;-83
2023/05/07 11:26:00;;;;;;;19.80;17.80;;;;;;;;;;5074208;28;20045;-83
2023/05/07 11:28:28;;;;;;;19.65;17.60;;;;;;;;;;5078800;28;20048;-85
2023/05/07 11:30:54;;;;;;;21.65;18.30;;;;;;;;;;5081567;28;20036;-81
2023/05/07 11:33:20;;;;;;;20.48;18.38;;;;;;;;;;5091727;28;20040;-82
2023/05/07 11:35:46;;;;;;;19.58;17.48;;;;;;;;;;5092649;28;20051;-82
2023/05/07 11:38:13;;;;;;;20.02;17.80;;;;;;;;;;5080424;28;20040;-82
2023/05/07 11:40:49;;;;;;;19.92;17.52;;;;;;;;;;5083006;28;20040;-82
2023/05/07 11:43:15;;;;;;;18.65;16.75;;;;;;;;;;5082998;28;20052;-83
2023/05/07 11:45:41;;;;;;;18.80;16.90;;;;;;;;;;5079437;28;20045;-84
2023/05/07 11:48:07;;;;;;;25.63;17.58;;;;;;;;;;5082017;28;20136;-82
2023/05/07 11:50:33;;;;;;;18.60;16.38;;;;;;;;;;5074801;28;20050;-84
2023/05/07 11:52:59;;;;;;;19.08;17.13;;;;;;;;;;5077849;28;20087;-83
2023/05/07 11:55:25;;;;;;;18.58;16.67;;;;;;;;;;5075783;28;20059;-82
2023/05/07 11:57:52;;;;;;;19.42;17.42;;;;;;;;;;5078764;28;20040;-84
2023/05/07 12:00:18;;;;;;;18.65;16.77;;;;;;;;;;5079610;28;20040;-82
2023/05/07 12:02:45;;;;;;;19.15;17.35;;;;;;;;;;5074324;28;20108;-84
2023/05/07 12:05:11;;;;;;;19.13;17.23;;;;;;;;;;5078954;28;20040;-84
2023/05/07 12:07:37;;;;;;;18.35;16.55;;;;;;;;;;5077118;28;20044;-86
2023/05/07 12:10:07;;;;;;;18.33;16.52;;;;;;;;;;5080399;28;20110;-84
2023/05/07 12:12:41;;;;;;;18.98;17.17;;;;;;;;;;5074394;28;20040;-85
2023/05/07 12:15:07;;;;;;;18.52;16.73;;;;;;;;;;5072146;28;20119;-85
2023/05/07 12:17:34;;;;;;;18.77;16.88;;;;;;;;;;5077039;28;20049;-84
2023/05/07 12:20:00;;;;;;;18.92;16.90;;;;;;;;;;5076364;28;20094;-85
2023/05/07 12:22:26;;;;;;;18.05;16.23;;;;;;;;;;5077692;28;20463;-83
2023/05/07 12:24:59;;;;;;;17.33;15.60;;;;;;;;;;5082519;28;20041;-85
2023/05/07 12:27:26;;;;;;;17.48;15.77;;;;;;;;;;5080988;28;20076;-85
2023/05/07 12:29:52;;;;;;;16.35;14.75;;;;;;;;;;5082691;28;20067;-84
2023/05/07 12:32:19;;;;;;;16.13;14.52;;;;;;;;;;5078603;28;20104;-85
2023/05/07 12:34:45;;;;;;;16.42;14.73;;;;;;;;;;5079457;28;20413;-85
2023/05/07 12:37:12;;;;;;;15.82;14.20;;;;;;;;;;5079375;28;20036;-85
2023/05/07 12:39:38;;;;;;;15.63;13.93;;;;;;;;;;5066943;28;20051;-85
2023/05/07 12:42:04;;;;;;;16.17;14.30;;;;;;;;;;5079672;28;20123;-88
2023/05/07 12:44:33;;;;;;;16.38;14.68;;;;;;;;;;5077033;28;20048;-85
2023/05/07 12:47:02;;;;;;;14.77;13.25;;;;;;;;;;5073653;28;20052;-84
2023/05/07 12:49:28;;;;;;;15.30;13.80;;;;;;;;;;5080850;28;20040;-85
2023/05/07 12:51:55;;;;;;;14.48;12.85;;;;;;;;;;5077940;28;20060;-85
2023/05/07 12:54:31;;;;;;;15.18;13.68;;;;;;;;;;5084374;28;20048;-85
2023/05/07 12:57:03;;;;;;;16.42;14.35;;;;;;;;;;5087290;28;20056;-84
2023/05/07 12:59:33;;;;;;;15.75;13.50;;;;;;;;;;5093878;28;20040;-86
2023/05/07 13:01:59;;;;;;;15.02;13.52;;;;;;;;;;5077981;28;20411;-84
2023/05/07 13:04:26;;;;;;;14.52;13.02;;;;;;;;;;5076559;28;20097;-85
2023/05/07 13:06:51;;;;;;;15.32;13.65;;;;;;;;;;5078870;28;20055;-85
2023/05/07 13:09:18;;;;;;;14.90;13.40;;;;;;;;;;5079026;28;20045;-84
2023/05/07 13:11:44;;;;;;;15.13;13.57;;;;;;;;;;5079554;28;20051;-84
2023/05/07 13:14:10;;;;;;;15.55;14.05;;;;;;;;;;5080207;28;20100;-85
2023/05/07 13:16:36;;;;;;;14.88;13.43;;;;;;;;;;5081124;28;20079;-84
2023/05/07 13:19:02;;;;;;;15.52;14.02;;;;;;;;;;5079485;28;20066;-85
2023/05/07 13:21:28;;;;;;;15.45;13.95;;;;;;;;;;5072243;28;20043;-85
2023/05/07 13:23:54;;;;;;;14.95;13.35;;;;;;;;;;5079362;28;20094;-86
2023/05/07 13:26:20;;;;;;;14.77;13.25;;;;;;;;;;5079119;28;20036;-86
2023/05/07 13:28:46;;;;;;;15.10;13.70;;;;;;;;;;5079594;28;20041;-85
2023/05/07 13:31:12;;;;;;;14.60;13.20;;;;;;;;;;5077160;28;20540;-84
2023/05/07 13:33:38;;;;;;;14.38;12.88;;;;;;;;;;5079731;28;20037;-84
2023/05/07 13:36:05;;;;;;;15.43;13.93;;;;;;;;;;5077977;28;20056;-86
2023/05/07 13:38:31;;;;;;;15.73;13.98;;;;;;;;;;5061064;28;20522;-85
2023/05/07 13:40:57;;;;;;;14.65;13.27;;;;;;;;;;5078951;28;20047;-86
2023/05/07 13:43:23;;;;;;;15.05;12.75;;;;;;;;;;5084030;28;20372;-86
2023/05/07 13:45:49;;;;;;;12.20;11.00;;;;;;;;;;5081365;28;20048;-85
2023/05/07 13:48:15;;;;;;;13.60;11.25;;;;;;;;;;5078406;28;20586;-85
2023/05/07 13:50:41;;;;;;;13.43;12.13;;;;;;;;;;5078429;28;20123;-86
2023/05/07 13:53:08;;;;;;;14.15;12.80;;;;;;;;;;5071188;28;20144;-85
2023/05/07 13:55:34;;;;;;;13.55;12.25;;;;;;;;;;5073650;28;20056;-85
2023/05/07 13:58:01;;;;;;;13.18;11.85;;;;;;;;;;5077973;28;20052;-85
2023/05/07 14:00:27;;;;;;;14.35;12.95;;;;;;;;;;5078626;28;20052;-84
2023/05/07 14:02:54;;;;;;;12.93;11.52;;;;;;;;;;5070667;28;20048;-85
2023/05/07 14:05:22;;;;;;;13.20;11.90;;;;;;;;;;5080610;28;20036;-84
2023/05/07 14:07:51;;;;;;;13.63;12.10;;;;;;;;;;5060345;28;20081;-83
2023/05/07 14:10:17;;;;;;;13.80;12.43;;;;;;;;;;5079279;28;20486;-85
2023/05/07 14:12:44;;;;;;;14.50;12.85;;;;;;;;;;5079747;28;20056;-84
2023/05/07 14:15:10;;;;;;;14.38;12.98;;;;;;;;;;5078962;28;20068;-83